Time;durP1;ratioP1;P1;durP2;ratioP2;P2;SDS_P1;SDS_P2;PMS_P1;PMS_P2;Temp;Humidity;BMP_temperature;BMP_pressure;BME280_temperature;BME280_humidity;BME280_pressure;Samples;Min_cycle;Max_cycle;Signal;HPM_P1;HPM_P2
2021/08/19 00:01:45;;;;;;;0.10;0.10;;;;;;;22.01;71.35;98708.13;5012131;28;20078;-73
2021/08/19 00:04:11;;;;;;;0.10;0.10;;;;;;;21.90;72.30;98697.81;5012030;28;20034;-73
2021/08/19 00:06:36;;;;;;;0.52;0.52;;;;;;;21.75;72.77;98706.84;5012324;28;20033;-72
2021/08/19 00:09:02;;;;;;;0.20;0.20;;;;;;;21.72;72.87;98708.34;5011768;28;20113;-75
2021/08/19 00:11:29;;;;;;;0.20;0.20;;;;;;;21.55;73.60;98708.75;5010838;28;20460;-73
2021/08/19 00:13:54;;;;;;;0.10;0.10;;;;;;;21.47;73.34;98712.47;4999095;28;20113;-72
2021/08/19 00:16:20;;;;;;;0.10;0.10;;;;;;;21.34;74.64;98699.00;5011192;28;20113;-72
2021/08/19 00:18:45;;;;;;;0.17;0.17;;;;;;;21.27;74.82;98704.28;5011442;28;20030;-71
2021/08/19 00:21:10;;;;;;;0.10;0.10;;;;;;;21.24;75.38;98707.75;5011219;28;20025;-71
2021/08/19 00:23:36;;;;;;;0.00;0.00;;;;;;;21.19;75.68;98706.09;5012111;28;20114;-73
2021/08/19 00:26:03;;;;;;;0.22;0.22;;;;;;;21.11;76.13;98702.41;5011241;28;20112;-74
2021/08/19 00:28:28;;;;;;;0.00;0.00;;;;;;;21.10;76.18;98705.47;5011584;28;20038;-72
2021/08/19 00:30:54;;;;;;;0.10;0.10;;;;;;;21.07;76.66;98712.41;5011330;28;20185;-75
2021/08/19 00:33:19;;;;;;;0.10;0.10;;;;;;;21.00;76.61;98716.91;5011785;28;20469;-75
2021/08/19 00:35:45;;;;;;;0.20;0.20;;;;;;;21.03;77.07;98713.47;5011624;28;20482;-74
2021/08/19 00:38:10;;;;;;;0.10;0.10;;;;;;;21.05;76.79;98703.81;5011577;28;20034;-76
2021/08/19 00:40:36;;;;;;;0.20;0.20;;;;;;;21.04;77.10;98696.81;5010537;28;20029;-77
2021/08/19 00:43:06;;;;;;;0.10;0.10;;;;;;;20.97;76.90;98699.41;5011847;28;20036;-77
2021/08/19 00:45:38;;;;;;;0.10;0.10;;;;;;;20.90;77.32;98691.84;5010461;28;20041;-74
2021/08/19 00:48:05;;;;;;;0.10;0.10;;;;;;;20.82;77.54;98692.81;5010655;28;20034;-75
2021/08/19 00:50:31;;;;;;;0.00;0.00;;;;;;;20.78;77.70;98713.69;5011649;28;20139;-75
2021/08/19 00:53:00;;;;;;;0.08;0.08;;;;;;;20.74;77.86;98724.47;5010630;28;20518;-74
2021/08/19 00:55:25;;;;;;;0.10;0.10;;;;;;;20.76;78.08;98735.81;5011044;28;20519;-74
2021/08/19 00:57:51;;;;;;;0.10;0.10;;;;;;;20.75;77.94;98731.50;5010936;28;20105;-74
2021/08/19 01:00:17;;;;;;;0.10;0.10;;;;;;;20.76;77.47;98741.25;5010878;28;20413;-73
2021/08/19 01:02:50;;;;;;;0.00;0.00;;;;;;;20.79;77.28;98729.66;5011310;28;20029;-74
2021/08/19 01:05:18;;;;;;;0.10;0.10;;;;;;;20.75;77.31;98722.53;5011133;28;20087;-73
2021/08/19 01:07:46;;;;;;;0.00;0.00;;;;;;;20.69;76.83;98707.63;5010370;28;20029;-75
2021/08/19 01:10:12;;;;;;;0.10;0.10;;;;;;;20.60;76.26;98707.81;5009704;28;20065;-76
2021/08/19 01:12:40;;;;;;;0.10;0.10;;;;;;;20.51;76.61;98710.72;5011086;28;20033;-76
2021/08/19 01:15:06;;;;;;;;;;;;;;;20.60;77.39;98721.41;4996660;28;20025;-75
2021/08/19 01:17:31;;;;;;;0.00;0.00;;;;;;;20.59;77.86;98720.63;5011311;28;19920;-76
2021/08/19 01:19:58;;;;;;;0.50;0.50;;;;;;;20.63;77.78;98724.19;5010713;28;20021;-75
2021/08/19 01:22:24;;;;;;;0.10;0.10;;;;;;;20.72;77.83;98725.97;5006076;28;20528;-75
2021/08/19 01:24:50;;;;;;;0.10;0.10;;;;;;;20.79;77.12;98726.94;5010896;28;20029;-75
2021/08/19 01:27:16;;;;;;;0.00;0.00;;;;;;;20.80;77.68;98725.03;5010760;28;20508;-75
2021/08/19 01:29:43;;;;;;;0.00;0.00;;;;;;;20.82;77.26;98721.94;5011255;28;20045;-75
2021/08/19 01:32:10;;;;;;;0.10;0.10;;;;;;;20.83;77.29;98724.28;5010701;28;20037;-76
2021/08/19 01:34:36;;;;;;;0.00;0.00;;;;;;;20.81;77.57;98710.25;5011116;28;20046;-74
2021/08/19 01:37:02;;;;;;;0.00;0.00;;;;;;;20.78;77.73;98710.97;5010796;28;20481;-74
2021/08/19 01:39:28;;;;;;;0.10;0.10;;;;;;;20.79;77.70;98707.13;5010228;28;20026;-73
2021/08/19 01:41:54;;;;;;;0.00;0.00;;;;;;;20.80;78.04;98700.56;5010701;28;20079;-75
2021/08/19 01:44:20;;;;;;;0.28;0.25;;;;;;;20.71;77.92;98694.47;5010766;28;20030;-73
2021/08/19 01:47:03;;;;;;;0.10;0.10;;;;;;;20.76;78.49;98700.47;5010709;28;20421;-75
2021/08/19 01:49:30;;;;;;;0.10;0.10;;;;;;;20.70;78.52;98693.72;5011497;28;20091;-73
2021/08/19 01:51:56;;;;;;;0.10;0.10;;;;;;;20.66;78.45;98689.31;5010329;28;20034;-74
2021/08/19 01:54:26;;;;;;;0.10;0.10;;;;;;;20.65;78.59;98699.38;5009759;28;20108;-74
2021/08/19 01:56:51;;;;;;;0.25;0.25;;;;;;;20.65;78.80;98702.09;5009761;28;20113;-76
2021/08/19 01:59:16;;;;;;;0.00;0.00;;;;;;;20.64;79.19;98698.59;5011046;28;20033;-76
2021/08/19 02:01:42;;;;;;;0.08;0.08;;;;;;;20.69;79.23;98699.47;5014546;28;20112;-75
2021/08/19 02:04:07;;;;;;;0.15;0.15;;;;;;;20.68;79.20;98701.41;5014294;28;20033;-76
2021/08/19 02:06:33;;;;;;;0.22;0.22;;;;;;;20.73;79.20;98703.09;5014882;28;20109;-75
2021/08/19 02:08:58;;;;;;;0.00;0.00;;;;;;;20.79;78.94;98694.31;5014449;28;20034;-76
2021/08/19 02:11:24;;;;;;;0.10;0.10;;;;;;;20.81;79.08;98693.97;5013968;28;20037;-77
2021/08/19 02:13:50;;;;;;;0.10;0.10;;;;;;;20.86;78.53;98684.75;5014881;28;20034;-76
2021/08/19 02:16:15;;;;;;;0.10;0.10;;;;;;;20.93;78.73;98690.34;5014323;28;20125;-75
2021/08/19 02:18:41;;;;;;;0.00;0.00;;;;;;;20.96;78.85;98692.38;5014474;28;20030;-76
2021/08/19 02:21:06;;;;;;;0.10;0.10;;;;;;;20.98;78.68;98681.13;5012870;28;20436;-75
2021/08/19 02:23:31;;;;;;;0.10;0.10;;;;;;;20.98;78.97;98684.63;5014050;28;20473;-76
2021/08/19 02:25:57;;;;;;;0.10;0.10;;;;;;;21.04;78.66;98685.16;5013939;28;20080;-75
2021/08/19 02:28:22;;;;;;;0.10;0.10;;;;;;;21.09;78.27;98682.16;5014331;28;20026;-76
2021/08/19 02:30:48;;;;;;;0.10;0.10;;;;;;;21.14;78.13;98681.09;5014486;28;20401;-76
2021/08/19 02:33:13;;;;;;;0.00;0.00;;;;;;;21.16;77.75;98681.53;5013911;28;20462;-75
2021/08/19 02:35:39;;;;;;;0.00;0.00;;;;;;;21.22;77.59;98683.59;5014196;28;20052;-76
2021/08/19 02:38:07;;;;;;;0.00;0.00;;;;;;;21.25;77.63;98676.66;5013912;28;20083;-76
2021/08/19 02:40:40;;;;;;;0.00;0.00;;;;;;;21.27;77.55;98677.09;5014135;28;20053;-76
2021/08/19 02:43:06;;;;;;;0.20;0.20;;;;;;;21.31;77.15;98677.19;5011460;28;20409;-75
2021/08/19 02:45:32;;;;;;;0.00;0.00;;;;;;;21.34;77.31;98687.34;5001787;28;20034;-75
2021/08/19 02:47:58;;;;;;;0.10;0.10;;;;;;;21.35;77.21;98687.00;5013474;28;20057;-77
2021/08/19 02:50:24;;;;;;;0.00;0.00;;;;;;;21.37;77.05;98682.00;5012607;28;20037;-77
2021/08/19 02:52:49;;;;;;;0.10;0.10;;;;;;;21.39;76.76;98685.13;5014183;28;20038;-76
2021/08/19 02:55:14;;;;;;;0.20;0.20;;;;;;;21.40;76.55;98683.22;5013234;28;20050;-76
2021/08/19 02:57:40;;;;;;;0.00;0.00;;;;;;;21.36;76.04;98679.59;5013109;28;20083;-77
2021/08/19 03:00:06;;;;;;;0.00;0.00;;;;;;;21.35;75.56;98688.91;4998012;28;20030;-77
2021/08/19 03:02:32;;;;;;;0.20;0.20;;;;;;;21.32;74.66;98681.47;4998864;28;20034;-76
2021/08/19 03:04:58;;;;;;;0.03;0.03;;;;;;;21.30;74.36;98690.00;5007056;28;20044;-76
2021/08/19 03:07:23;;;;;;;0.00;0.00;;;;;;;21.26;74.51;98687.22;5013820;28;20092;-76
2021/08/19 03:09:49;;;;;;;0.20;0.20;;;;;;;21.24;74.72;98689.47;5013326;28;20026;-76
2021/08/19 03:12:15;;;;;;;0.15;0.15;;;;;;;21.25;74.47;98691.06;5012533;28;20414;-76
2021/08/19 03:14:40;;;;;;;0.10;0.10;;;;;;;21.24;73.48;98694.91;5010119;28;20044;-76
2021/08/19 03:17:07;;;;;;;0.00;0.00;;;;;;;21.20;73.46;98693.25;5013082;28;20022;-75
2021/08/19 03:19:37;;;;;;;0.00;0.00;;;;;;;21.15;73.07;98691.59;5013285;28;20056;-72
2021/08/19 03:22:03;;;;;;;0.00;0.00;;;;;;;21.11;72.96;98690.75;5012430;28;20474;-73
2021/08/19 03:24:29;;;;;;;0.00;0.00;;;;;;;21.07;72.77;98698.06;5012281;28;20058;-72
2021/08/19 03:26:56;;;;;;;0.10;0.10;;;;;;;20.97;71.67;98691.25;5012884;28;20034;-75
2021/08/19 03:29:22;;;;;;;0.05;0.05;;;;;;;20.88;71.30;98696.06;5012817;28;20030;-73
2021/08/19 03:31:47;;;;;;;0.10;0.10;;;;;;;20.82;71.24;98697.47;5008501;28;20084;-75
2021/08/19 03:34:12;;;;;;;0.03;0.03;;;;;;;20.68;72.00;98701.41;5011529;28;20037;-76
2021/08/19 03:36:38;;;;;;;0.00;0.00;;;;;;;20.59;71.63;98706.22;5013069;28;20037;-75
2021/08/19 03:39:04;;;;;;;0.22;0.22;;;;;;;20.47;71.55;98701.69;5013132;28;20453;-74
2021/08/19 03:41:30;;;;;;;0.10;0.10;;;;;;;20.35;71.81;98699.84;5012463;28;20457;-76
2021/08/19 03:43:56;;;;;;;0.13;0.13;;;;;;;20.26;72.23;98701.94;5011980;28;20030;-76
2021/08/19 03:46:23;;;;;;;0.10;0.10;;;;;;;20.17;72.27;98693.19;5012129;28;20030;-77
2021/08/19 03:48:48;;;;;;;0.45;0.45;;;;;;;20.09;72.37;98692.19;5010491;28;20433;-77
2021/08/19 03:51:14;;;;;;;0.10;0.10;;;;;;;20.00;72.40;98697.78;5006408;28;20030;-77
2021/08/19 03:53:39;;;;;;;0.10;0.10;;;;;;;20.03;72.17;98705.25;5008349;28;20034;-78
2021/08/19 03:56:07;;;;;;;0.20;0.20;;;;;;;20.04;72.62;98701.38;5011434;28;20026;-79
2021/08/19 03:58:32;;;;;;;0.73;0.73;;;;;;;20.03;72.20;98702.53;5011324;28;20033;-77
2021/08/19 04:01:00;;;;;;;0.00;0.00;;;;;;;20.01;71.92;98699.38;5011021;28;20041;-77
2021/08/19 04:03:25;;;;;;;0.10;0.10;;;;;;;20.05;71.50;98704.88;5011085;28;20030;-78
2021/08/19 04:05:51;;;;;;;0.10;0.10;;;;;;;20.06;71.02;98709.19;5011685;28;20397;-78
2021/08/19 04:08:16;;;;;;;0.30;0.30;;;;;;;20.11;70.86;98706.97;5010843;28;20517;-75
2021/08/19 04:10:41;;;;;;;0.32;0.32;;;;;;;20.19;70.36;98704.47;5012696;28;20033;-78
2021/08/19 04:13:07;;;;;;;0.03;0.03;;;;;;;20.34;69.98;98706.41;5011791;28;20091;-76
2021/08/19 04:15:33;;;;;;;0.00;0.00;;;;;;;20.55;68.93;98705.38;5012142;28;20069;-75
2021/08/19 04:17:58;;;;;;;0.10;0.10;;;;;;;20.78;69.03;98710.97;5012491;28;20037;-75
2021/08/19 04:20:24;;;;;;;0.30;0.30;;;;;;;21.04;67.87;98712.34;5011915;28;20406;-75
2021/08/19 04:22:49;;;;;;;0.00;0.00;;;;;;;21.32;67.26;98714.13;5011864;28;20099;-76
2021/08/19 04:25:15;;;;;;;0.10;0.10;;;;;;;21.64;65.34;98708.56;5010980;28;20017;-73
2021/08/19 04:27:40;;;;;;;0.10;0.10;;;;;;;21.90;65.07;98714.13;5011841;28;20033;-73
2021/08/19 04:30:08;;;;;;;0.10;0.10;;;;;;;22.12;63.95;98720.00;5010354;28;20018;-73
2021/08/19 04:32:33;;;;;;;0.00;0.00;;;;;;;22.40;62.94;98705.31;5011583;28;20038;-74
2021/08/19 04:34:59;;;;;;;0.00;0.00;;;;;;;22.60;61.36;98702.53;5011798;28;20292;-74
2021/08/19 04:37:25;;;;;;;0.00;0.00;;;;;;;22.79;61.17;98702.44;5010013;28;20080;-74
2021/08/19 04:39:50;;;;;;;0.00;0.00;;;;;;;23.02;59.93;98707.84;5011572;28;20125;-75
2021/08/19 04:42:16;;;;;;;1.65;0.45;;;;;;;23.24;58.34;98710.91;5011300;28;20509;-76
2021/08/19 04:44:41;;;;;;;0.17;0.17;;;;;;;23.34;58.09;98720.38;5009706;28;20044;-75
2021/08/19 04:47:06;;;;;;;0.10;0.10;;;;;;;23.37;57.49;98718.84;5011394;28;20493;-74
2021/08/19 04:49:32;;;;;;;0.10;0.10;;;;;;;23.41;57.21;98719.66;5011021;28;20477;-75
2021/08/19 04:51:58;;;;;;;0.15;0.15;;;;;;;23.31;57.01;98716.44;5011046;28;20053;-77
2021/08/19 04:54:23;;;;;;;0.25;0.25;;;;;;;23.15;56.42;98722.03;5010589;28;20458;-75
2021/08/19 04:56:49;;;;;;;0.00;0.00;;;;;;;23.05;57.43;98722.66;5011441;28;20172;-75
2021/08/19 04:59:14;;;;;;;0.00;0.00;;;;;;;22.80;57.29;98728.56;5010871;28;20034;-75
2021/08/19 05:01:40;;;;;;;0.00;0.00;;;;;;;22.68;57.07;98734.19;5010552;28;20029;-75
2021/08/19 05:04:06;;;;;;;0.00;0.00;;;;;;;22.51;57.78;98733.53;5010951;28;20053;-75
2021/08/19 05:06:33;;;;;;;0.05;0.05;;;;;;;22.27;57.98;98742.81;5011034;28;20033;-74
2021/08/19 05:09:00;;;;;;;0.10;0.10;;;;;;;22.20;58.29;98753.56;5011539;28;20034;-75
2021/08/19 05:11:26;;;;;;;0.22;0.17;;;;;;;22.17;59.19;98779.59;5010763;28;20395;-75
2021/08/19 05:13:52;;;;;;;0.00;0.00;;;;;;;22.10;59.52;98765.84;5011820;28;20025;-75
2021/08/19 05:16:18;;;;;;;0.20;0.20;;;;;;;22.12;59.82;98768.19;5010427;28;20107;-76
2021/08/19 05:18:45;;;;;;;0.10;0.10;;;;;;;22.21;59.56;98772.28;5010800;28;20037;-75
2021/08/19 05:21:12;;;;;;;0.10;0.10;;;;;;;22.32;59.18;98774.41;5008922;28;20034;-75
2021/08/19 05:23:37;;;;;;;0.00;0.00;;;;;;;22.45;58.53;98781.31;5011254;28;20080;-74
2021/08/19 05:26:03;;;;;;;0.00;0.00;;;;;;;22.47;58.09;98779.00;5011139;28;20029;-76
2021/08/19 05:28:29;;;;;;;0.10;0.10;;;;;;;22.57;58.21;98785.00;5010169;28;20037;-75
2021/08/19 05:30:54;;;;;;;0.00;0.00;;;;;;;22.57;58.38;98783.06;5010413;28;20026;-75
2021/08/19 05:33:19;;;;;;;0.28;0.17;;;;;;;22.68;58.73;98789.50;5008875;28;20442;-79
2021/08/19 05:35:45;;;;;;;0.25;0.25;;;;;;;22.79;58.46;98783.41;5010385;28;20076;-76
2021/08/19 05:38:10;;;;;;;0.10;0.10;;;;;;;22.82;57.54;98780.75;5011164;28;20033;-77
2021/08/19 05:40:36;;;;;;;0.00;0.00;;;;;;;22.87;58.20;98771.47;5009993;28;20037;-76
2021/08/19 05:43:02;;;;;;;0.05;0.05;;;;;;;23.00;57.75;98785.72;5010485;28;20029;-76
2021/08/19 05:45:28;;;;;;;0.08;0.08;;;;;;;23.01;57.47;98785.34;5010583;28;20087;-76
2021/08/19 05:47:53;;;;;;;0.10;0.10;;;;;;;23.05;57.43;98784.63;5010896;28;20026;-76
2021/08/19 05:50:18;;;;;;;0.00;0.00;;;;;;;22.93;57.49;98786.38;5010267;28;20160;-76
2021/08/19 05:52:44;;;;;;;0.10;0.10;;;;;;;22.91;57.70;98787.91;5010726;28;20026;-75
2021/08/19 05:55:10;;;;;;;0.00;0.00;;;;;;;22.74;57.62;98794.63;5010393;28;20555;-76
2021/08/19 05:57:36;;;;;;;0.10;0.10;;;;;;;22.61;58.32;98797.53;5010658;28;20030;-75
2021/08/19 06:00:03;;;;;;;0.10;0.10;;;;;;;22.45;59.03;98789.47;5010767;28;20426;-77
2021/08/19 06:02:29;;;;;;;0.98;0.40;;;;;;;22.27;59.96;98794.56;5010190;28;20033;-75
2021/08/19 06:04:54;;;;;;;0.35;0.35;;;;;;;22.16;60.20;98801.75;5011304;28;20034;-75
2021/08/19 06:07:19;;;;;;;0.10;0.10;;;;;;;22.06;60.12;98795.72;5010463;28;20112;-75
2021/08/19 06:09:45;;;;;;;0.40;0.35;;;;;;;22.01;59.61;98798.75;5010531;28;20056;-75
2021/08/19 06:12:10;;;;;;;1.00;0.93;;;;;;;21.95;59.76;98802.91;5010205;28;20496;-75
2021/08/19 06:14:36;;;;;;;0.00;0.00;;;;;;;21.97;59.92;98805.25;5010942;28;20034;-75
2021/08/19 06:17:01;;;;;;;0.03;0.03;;;;;;;22.00;59.67;98808.06;5010159;28;20022;-76
2021/08/19 06:19:26;;;;;;;0.20;0.20;;;;;;;21.95;59.65;98805.63;5010507;28;20033;-75
2021/08/19 06:21:52;;;;;;;0.10;0.10;;;;;;;21.85;59.51;98795.28;5004946;28;20406;-77
2021/08/19 06:24:17;;;;;;;0.10;0.10;;;;;;;21.80;59.05;98807.28;5009345;28;20041;-79
2021/08/19 06:26:43;;;;;;;0.10;0.10;;;;;;;21.67;59.91;98808.56;5010341;28;20107;-79
2021/08/19 06:29:08;;;;;;;0.35;0.35;;;;;;;21.72;59.51;98811.75;5009463;28;20030;-79
2021/08/19 06:31:34;;;;;;;0.10;0.10;;;;;;;21.74;59.63;98804.03;5009358;28;20553;-79
2021/08/19 06:33:59;;;;;;;0.20;0.20;;;;;;;21.78;59.30;98819.66;5009033;28;20093;-79
2021/08/19 06:36:24;;;;;;;0.30;0.30;;;;;;;21.73;58.69;98813.34;5010292;28;20390;-79
2021/08/19 06:38:53;;;;;;;0.00;0.00;;;;;;;21.78;59.22;98811.50;5009016;28;20022;-78
2021/08/19 06:41:20;;;;;;;0.00;0.00;;;;;;;21.79;60.24;98811.13;5010091;28;20030;-77
2021/08/19 06:43:45;;;;;;;0.43;0.43;;;;;;;21.82;59.85;98809.63;5010381;28;20031;-82
2021/08/19 06:46:10;;;;;;;0.00;0.00;;;;;;;21.90;60.22;98814.88;5009008;28;20033;-80
2021/08/19 06:48:36;;;;;;;5.82;1.15;;;;;;;21.91;60.23;98811.00;5012750;28;20042;-75
2021/08/19 06:51:01;;;;;;;0.10;0.10;;;;;;;22.01;59.67;98809.63;5013318;28;20481;-78
2021/08/19 06:53:27;;;;;;;0.10;0.10;;;;;;;22.09;59.48;98807.06;5012165;28;20116;-74
2021/08/19 06:55:52;;;;;;;0.10;0.10;;;;;;;22.20;59.24;98808.84;5013682;28;20029;-74
2021/08/19 06:58:26;;;;;;;0.00;0.00;;;;;;;22.23;58.95;98812.78;5012756;28;20034;-92
2021/08/19 07:00:53;;;;;;;0.28;0.28;;;;;;;22.31;58.64;98813.69;4993277;28;20034;-90
2021/08/19 07:03:19;;;;;;;0.10;0.10;;;;;;;22.42;58.29;98816.66;4994715;28;20034;-86
2021/08/19 07:05:45;;;;;;;0.10;0.10;;;;;;;22.49;57.80;98809.38;4993202;28;20026;-89
2021/08/19 07:08:11;;;;;;;0.30;0.30;;;;;;;22.53;57.24;98813.00;4993405;28;20492;-89
2021/08/19 07:10:38;;;;;;;0.00;0.00;;;;;;;22.58;57.36;98814.59;4992727;28;20030;-89
2021/08/19 07:13:05;;;;;;;0.05;0.05;;;;;;;22.63;55.94;98825.22;4993010;28;20049;-89
2021/08/19 07:15:31;;;;;;;0.22;0.22;;;;;;;22.65;57.08;98828.34;5002978;28;20041;-91
2021/08/19 07:17:56;;;;;;;0.10;0.10;;;;;;;22.61;56.50;98822.06;5012558;28;20038;-89
2021/08/19 07:20:22;;;;;;;0.08;0.08;;;;;;;22.58;56.23;98835.63;5012244;28;20033;-85
2021/08/19 07:22:47;;;;;;;0.90;0.57;;;;;;;22.56;56.42;98825.09;5012129;28;20473;-89
2021/08/19 07:25:14;;;;;;;0.10;0.10;;;;;;;22.51;54.97;98831.63;5012317;28;20022;-95
2021/08/19 07:27:40;;;;;;;0.30;0.25;;;;;;;22.46;53.69;98831.13;5012012;28;20034;-85
2021/08/19 07:30:06;;;;;;;0.10;0.10;;;;;;;22.46;54.15;98831.94;5010850;28;20030;-83
2021/08/19 07:32:32;;;;;;;0.10;0.10;;;;;;;22.43;54.91;98824.47;4996025;28;20177;-87
2021/08/19 07:34:57;;;;;;;0.10;0.10;;;;;;;22.47;55.76;98828.06;4995029;28;20133;-78
2021/08/19 07:37:23;;;;;;;0.10;0.10;;;;;;;22.58;56.31;98830.19;5012230;28;20029;-84
2021/08/19 07:39:48;;;;;;;0.20;0.20;;;;;;;22.65;55.02;98825.63;5011684;28;20033;-86
2021/08/19 07:42:14;;;;;;;0.10;0.10;;;;;;;22.71;53.12;98826.13;5011640;28;20378;-86
2021/08/19 07:44:39;;;;;;;0.10;0.10;;;;;;;22.78;54.33;98833.66;5010264;28;20037;-79
2021/08/19 07:47:05;;;;;;;0.10;0.10;;;;;;;22.88;54.34;98833.03;5012835;28;20174;-92
2021/08/19 07:49:30;;;;;;;0.00;0.00;;;;;;;22.97;53.25;98821.88;5011296;28;20044;-79
2021/08/19 07:51:56;;;;;;;0.15;0.15;;;;;;;23.06;53.14;98827.06;5011652;28;20401;-78
2021/08/19 07:54:21;;;;;;;0.10;0.10;;;;;;;23.09;51.84;98821.69;5008237;28;20056;-79
2021/08/19 07:56:47;;;;;;;0.13;0.13;;;;;;;23.16;51.89;98829.22;5010189;28;20397;-81
2021/08/19 07:59:12;;;;;;;0.68;0.40;;;;;;;23.18;52.30;98827.72;5010480;28;20172;-75
2021/08/19 08:01:38;;;;;;;0.03;0.03;;;;;;;23.29;52.38;98824.34;5011612;28;20485;-75
2021/08/19 08:04:06;;;;;;;0.20;0.20;;;;;;;23.34;52.60;98822.09;5012491;28;20030;-76
2021/08/19 08:06:32;;;;;;;0.38;0.35;;;;;;;23.44;52.93;98817.94;5012491;28;20065;-75
2021/08/19 08:08:57;;;;;;;0.30;0.30;;;;;;;23.55;54.38;98818.09;5012653;28;20104;-75
2021/08/19 08:11:23;;;;;;;0.28;0.28;;;;;;;23.66;53.65;98812.78;5011358;28;20552;-76
2021/08/19 08:13:48;;;;;;;0.00;0.00;;;;;;;23.81;52.58;98817.28;5012613;28;20586;-73
2021/08/19 08:16:13;;;;;;;0.05;0.05;;;;;;;23.92;52.58;98811.16;5012488;28;20363;-74
2021/08/19 08:18:39;;;;;;;0.10;0.10;;;;;;;24.01;50.60;98821.81;5011924;28;20030;-76
2021/08/19 08:21:04;;;;;;;0.10;0.10;;;;;;;24.09;51.21;98818.03;5012301;28;20021;-76
2021/08/19 08:23:35;;;;;;;0.00;0.00;;;;;;;24.20;50.29;98818.94;5012171;28;20037;-74
2021/08/19 08:26:01;;;;;;;0.10;0.10;;;;;;;24.29;49.03;98804.97;5012290;28;20084;-75
2021/08/19 08:28:30;;;;;;;0.10;0.10;;;;;;;24.37;46.16;98809.34;5012071;28;20026;-74
2021/08/19 08:30:56;;;;;;;0.20;0.20;;;;;;;24.38;43.83;98815.63;5012218;28;20033;-74
2021/08/19 08:33:22;;;;;;;0.20;0.20;;;;;;;24.40;43.25;98814.09;5011920;28;20049;-74
2021/08/19 08:35:48;;;;;;;0.47;0.47;;;;;;;24.41;42.90;98804.72;5011923;28;20069;-75
2021/08/19 08:38:16;;;;;;;0.08;0.08;;;;;;;24.51;44.41;98807.94;5012083;28;20169;-77
2021/08/19 08:40:44;;;;;;;0.10;0.10;;;;;;;24.58;46.49;98806.06;5011764;28;20106;-75
2021/08/19 08:43:10;;;;;;;;;;;;;;;24.72;44.82;98813.63;5012390;28;20516;-74
2021/08/19 08:45:39;;;;;;;0.10;0.10;;;;;;;24.77;43.91;98798.81;5011740;28;19953;-76
2021/08/19 08:48:16;;;;;;;0.25;0.25;;;;;;;24.86;41.51;98801.25;5010688;28;20037;-77
2021/08/19 08:50:44;;;;;;;0.10;0.10;;;;;;;24.89;42.46;98797.72;5011626;28;20026;-76
2021/08/19 08:53:10;;;;;;;0.05;0.05;;;;;;;24.93;43.00;98804.81;5011518;28;20277;-77
2021/08/19 08:55:36;;;;;;;0.30;0.30;;;;;;;25.01;42.88;98802.13;5011320;28;20406;-76
2021/08/19 08:58:02;;;;;;;0.10;0.10;;;;;;;24.98;42.61;98792.75;5007838;28;20120;-75
2021/08/19 09:00:28;;;;;;;0.08;0.08;;;;;;;25.09;43.05;98795.56;5011378;28;20041;-75
2021/08/19 09:02:53;;;;;;;0.10;0.10;;;;;;;25.16;43.28;98801.06;5009972;28;20022;-75
